^^
Dati Storici Stazione
 
Giornaliero Riassunto Luglio 06, 2022 Unita' di misura:  Metriche    Inglesi   Entrambe
Giornaliero Settimanale Mensile Annuale
  Attuale: Max: Min: Media:
Temperatura: 25.8 °C 31.7 °C 23.4 °C 27.7 °C
Punto di Rugiada: 15.8 °C 21.1 °C 14.6 °C 17.1 °C
Umidita': 54% 66% 38% 53%
Velocita' Vento: 1.8km/h 15.4km/h 0km/h 6.6km/h
Raffica di Vento: 5.6km/h 35.4km/h - -
Direzione VentoNNW - - ESE
Pressione: 1015.1 hPa 1015.5 hPa 1013.4 hPa -
Precipitazioni: 0 mm      
 
 
Tabelle Dati per il Luglio 06, 2022
Ora Temperatura Punto Rugiada Pressione Dir.Vento Vel.Vento Raff.Vento Umidita' Rainfall Rate (Orario) Solare Condizioni
00:04 25.3 °C 18.5 °C 1013.8 hPa West 1.9 km/h 6.4 km/h 66% 0 mm W/m2
00:09 25.3 °C 18.5 °C 1013.8 hPa WSW 1.6 km/h 5.6 km/h 66% 0 mm W/m2
00:14 25.4 °C 18.3 °C 1013.8 hPa WSW 1 km/h 5.6 km/h 64.8% 0 mm W/m2
00:19 25.4 °C 18.1 °C 1013.8 hPa WSW 0.5 km/h 4.8 km/h 64% 0 mm W/m2
00:24 25.4 °C 17.9 °C 1013.8 hPa WSW 1.9 km/h 6.4 km/h 63.3% 0 mm W/m2
00:29 25.4 °C 17.7 °C 1013.8 hPa West 4.5 km/h 8 km/h 62.4% 0 mm W/m2
00:34 25.4 °C 17.4 °C 1013.4 hPa WSW 4 km/h 8 km/h 61.6% 0 mm W/m2
00:39 25.3 °C 17.3 °C 1013.4 hPa WSW 1 km/h 6.4 km/h 61% 0 mm W/m2
00:44 25.3 °C 16.9 °C 1013.4 hPa Calm   4.8 km/h 59.9% 0 mm W/m2
00:49 25.3 °C 16.7 °C 1013.4 hPa NW 0.6 km/h 3.7 km/h 58.8% 0 mm W/m2
00:54 25.4 °C 16.3 °C 1013.4 hPa NW 1.3 km/h 4.8 km/h 56.9% 0 mm W/m2
00:59 25.6 °C 16.2 °C 1013.8 hPa North 1.8 km/h 5.6 km/h 56% 0 mm W/m2
01:04 25.8 °C 16.1 °C 1013.8 hPa North 2.1 km/h 4.8 km/h 55% 0 mm W/m2
01:09 26 °C 16.1 °C 1013.8 hPa NNE 2.1 km/h 5.6 km/h 54.3% 0 mm W/m2
01:14 26.1 °C 16.1 °C 1013.8 hPa NNE 2.1 km/h 6.4 km/h 54% 0 mm W/m2
01:19 26.2 °C 16 °C 1013.4 hPa NNE 2.6 km/h 6.4 km/h 53.6% 0 mm W/m2
01:24 26.2 °C 16 °C 1013.4 hPa North 3.1 km/h 6.4 km/h 53.5% 0 mm W/m2
01:29 26.2 °C 16.2 °C 1013.8 hPa NNW 2.6 km/h 6.4 km/h 54% 0 mm W/m2
01:34 26.2 °C 16.3 °C 1013.4 hPa North 2.6 km/h 6.4 km/h 54.6% 0 mm W/m2
01:39 26 °C 16.4 °C 1013.4 hPa NNW 1.9 km/h 6.4 km/h 55.5% 0 mm W/m2
01:44 25.8 °C 16.5 °C 1013.4 hPa North 2.1 km/h 6.4 km/h 56.3% 0 mm W/m2
01:49 25.7 °C 16.6 °C 1013.4 hPa NNE 2.9 km/h 6.4 km/h 57% 0 mm W/m2
01:54 25.7 °C 16.6 °C 1013.4 hPa NE 3.1 km/h 6.4 km/h 57% 0 mm W/m2
01:59 25.7 °C 16.6 °C 1013.4 hPa NNE 3.9 km/h 6.4 km/h 57% 0 mm W/m2
02:04 25.8 °C 16.6 °C 1013.4 hPa North 3.4 km/h 6.4 km/h 57% 0 mm W/m2
02:09 25.7 °C 16.6 °C 1013.4 hPa North 3.2 km/h 6.4 km/h 57.2% 0 mm W/m2
02:14 25.6 °C 16.7 °C 1013.4 hPa North 2.7 km/h 6.4 km/h 58.1% 0 mm W/m2
02:19 25.4 °C 16.8 °C 1013.4 hPa NE 2.7 km/h 6.4 km/h 59% 0 mm W/m2
02:24 25.4 °C 16.8 °C 1013.4 hPa NE 3.2 km/h 8 km/h 59% 0 mm W/m2
02:29 25.4 °C 16.6 °C 1013.4 hPa NNW 2.4 km/h 8 km/h 58.1% 0 mm W/m2
02:34 25.4 °C 16.7 °C 1013.4 hPa NNE 2.6 km/h 6.4 km/h 58.8% 0 mm W/m2
02:39 25.3 °C 16.6 °C 1013.4 hPa NNW 3.1 km/h 6.4 km/h 58.3% 0 mm W/m2
02:44 25.3 °C 16.4 °C 1013.4 hPa North 2.4 km/h 6.4 km/h 58% 0 mm W/m2
02:49 25.2 °C 16.4 °C 1013.4 hPa NNE 2.1 km/h 6.4 km/h 58% 0 mm W/m2
02:54 25.2 °C 16.3 °C 1013.4 hPa NE 1.8 km/h 5.6 km/h 58% 0 mm W/m2
02:59 25.1 °C 16.4 °C 1013.4 hPa North 2.6 km/h 6.4 km/h 58.7% 0 mm W/m2
03:04 24.9 °C 16.6 °C 1013.4 hPa North 2.4 km/h 6.4 km/h 59.6% 0 mm W/m2
03:09 24.8 °C 16.7 °C 1013.4 hPa NNW 3.1 km/h 8 km/h 60.7% 0 mm W/m2
03:14 24.7 °C 16.8 °C 1013.4 hPa NNW 2.7 km/h 8 km/h 61.7% 0 mm W/m2
03:19 24.5 °C 16.9 °C 1013.4 hPa North 2.7 km/h 6.4 km/h 62.8% 0 mm W/m2
03:24 24.4 °C 16.9 °C 1013.4 hPa NNE 3.5 km/h 8 km/h 63% 0 mm W/m2
03:29 24.4 °C 17.1 °C 1013.4 hPa NE 3.2 km/h 8 km/h 63.9% 0 mm W/m2
03:34 24.3 °C 17.1 °C 1013.4 hPa NNE 3.7 km/h 8 km/h 64% 0 mm W/m2
03:39 24.3 °C 17.2 °C 1013.4 hPa NE 3.7 km/h 9.7 km/h 64.6% 0 mm W/m2
03:44 24.2 °C 17.2 °C 1013.4 hPa North 3.7 km/h 9.7 km/h 65% 0 mm W/m2
03:49 24.1 °C 17.1 °C 1013.4 hPa NNW 2.7 km/h 9.7 km/h 65% 0 mm W/m2
03:54 24 °C 17.2 °C 1013.4 hPa WNW 3.1 km/h 9.7 km/h 66% 0 mm W/m2
03:59 23.8 °C 17.1 °C 1013.4 hPa NW 2.1 km/h 9.7 km/h 66% 0 mm W/m2
04:04 23.8 °C 17.1 °C 1013.4 hPa WNW 1.9 km/h 6.4 km/h 66% 0 mm W/m2
04:09 23.7 °C 17 °C 1013.4 hPa WSW 0.8 km/h 4.8 km/h 66% 0 mm W/m2
04:14 23.6 °C 16.9 °C 1013.4 hPa West 0.6 km/h 5.6 km/h 66% 0 mm W/m2
04:19 23.5 °C 16.8 °C 1013.4 hPa Calm   3.2 km/h 66% 0 mm W/m2
04:24 23.4 °C 16.7 °C 1013.4 hPa NNE 0.5 km/h 5.6 km/h 65.6% 0 mm W/m2
04:29 23.4 °C 16.4 °C 1013.4 hPa NNW 1.9 km/h 6.4 km/h 64.7% 0 mm W/m2
04:34 23.4 °C 16.2 °C 1013.4 hPa NW 1 km/h 6.4 km/h 64% 0 mm W/m2
04:39 23.5 °C 16.1 °C 1013.4 hPa North 1.9 km/h 6.4 km/h 63% 0 mm W/m2
04:44 23.6 °C 16 °C 1013.4 hPa NW 2.1 km/h 6.4 km/h 62.5% 0 mm W/m2
04:49 23.7 °C 15.9 °C 1013.4 hPa North 1.3 km/h 6.4 km/h 62% 0 mm W/m2
04:54 23.7 °C 15.7 °C 1013.4 hPa NW 1.8 km/h 6.4 km/h 61.1% 0 mm W/m2
04:59 23.7 °C 15.7 °C 1013.4 hPa NNW 3.1 km/h 8 km/h 61% 0 mm W/m2
05:04 23.7 °C 15.7 °C 1013.4 hPa NW 2.4 km/h 8 km/h 60.8% 0 mm W/m2
05:09 23.7 °C 15.4 °C 1013.4 hPa NNW 1.8 km/h 6.4 km/h 60% 0 mm W/m2
05:14 23.7 °C 15.4 °C 1013.8 hPa NW 1.4 km/h 6.4 km/h 60% 0 mm W/m2
05:19 23.6 °C 15.4 °C 1013.8 hPa NW 2.7 km/h 8 km/h 60% 0 mm W/m2
05:24 23.7 °C 15.4 °C 1013.8 hPa NNW 2.1 km/h 8 km/h 60% 0 mm W/m2
05:29 23.7 °C 15.2 °C 1013.8 hPa NNW 3.2 km/h 8 km/h 59.1% 0 mm W/m2
05:34 23.7 °C 15.2 °C 1013.8 hPa NNW 2.9 km/h 8 km/h 58.7% 0 mm W/m2
05:39 23.8 °C 15.1 °C 1013.4 hPa WNW 2.9 km/h 8 km/h 58% 0 mm W/m2
05:44 23.9 °C 15 °C 1013.8 hPa North 2.6 km/h 8 km/h 57.6% 0 mm W/m2
05:49 23.9 °C 14.8 °C 1013.8 hPa NW 3.1 km/h 6.4 km/h 57% 0 mm W/m2
05:54 23.9 °C 14.9 °C 1013.8 hPa NNW 3.7 km/h 8 km/h 57% 0 mm W/m2
05:59 23.9 °C 14.7 °C 1013.8 hPa WNW 3.7 km/h 9.7 km/h 56.1% 0 mm W/m2
06:04 23.9 °C 14.6 °C 1013.8 hPa NNW 3.1 km/h 9.7 km/h 56% 0 mm W/m2
06:09 23.9 °C 14.6 °C 1013.8 hPa NNW 1.9 km/h 6.4 km/h 56.1% 0 mm W/m2
06:14 23.9 °C 14.6 °C 1013.8 hPa North 1.9 km/h 6.4 km/h 56% 0 mm W/m2
06:19 24 °C 14.7 °C 1013.8 hPa North 3.4 km/h 6.4 km/h 56% 0 mm W/m2
06:24 24.1 °C 14.8 °C 1013.8 hPa NNW 4 km/h 8 km/h 56% 0 mm W/m2
06:29 24.2 °C 14.9 °C 1013.8 hPa NNW 3.5 km/h 9.7 km/h 56% 0 mm W/m2
06:34 24.4 °C 15.1 °C 1013.8 hPa NNE 3.2 km/h 9.7 km/h 56% 0 mm W/m2
06:39 24.7 °C 15.2 °C 1013.8 hPa NNE 3.5 km/h 8 km/h 55.2% 0 mm W/m2
06:44 25 °C 15.3 °C 1013.8 hPa NNW 4.2 km/h 11.3 km/h 55% 0 mm W/m2
06:49 25.2 °C 15.3 °C 1013.8 hPa NNW 4.3 km/h 11.3 km/h 54% 0 mm W/m2
06:54 25.4 °C 15.4 °C 1014.1 hPa NW 4.3 km/h 11.3 km/h 54% 0 mm W/m2
06:59 25.6 °C 15.6 °C 1014.1 hPa NNW 3.9 km/h 11.3 km/h 54% 0 mm W/m2
07:04 25.7 °C 15.7 °C 1014.1 hPa NNW 4.5 km/h 11.3 km/h 54% 0 mm W/m2
07:09 25.9 °C 15.9 °C 1014.1 hPa NW 4.5 km/h 11.3 km/h 54% 0 mm W/m2
07:14 26.1 °C 16.1 °C 1014.1 hPa North 5.1 km/h 11.3 km/h 54% 0 mm W/m2
07:19 26.3 °C 16.2 °C 1014.1 hPa North 4.2 km/h 9.7 km/h 54% 0 mm W/m2
07:24 26.5 °C 16.4 °C 1014.1 hPa North 4.2 km/h 9.7 km/h 54% 0 mm W/m2
07:29 26.6 °C 16.8 °C 1014.1 hPa NNE 6.3 km/h 11.3 km/h 54.9% 0 mm W/m2
07:34 26.7 °C 16.9 °C 1014.1 hPa ENE 4.5 km/h 11.3 km/h 55% 0 mm W/m2
07:39 26.9 °C 17.1 °C 1014.1 hPa NE 4.7 km/h 9.7 km/h 55% 0 mm W/m2
07:44 27 °C 17.4 °C 1014.4 hPa NE 5.1 km/h 13 km/h 55.9% 0 mm W/m2
07:49 27.1 °C 17.7 °C 1014.4 hPa NNE 5.8 km/h 12.9 km/h 56.6% 0 mm W/m2
07:54 27.2 °C 18.2 °C 1014.4 hPa NE 7.2 km/h 16.7 km/h 58.1% 0 mm W/m2
07:59 27.2 °C 18.5 °C 1014.4 hPa NNE 6.9 km/h 16.1 km/h 59% 0 mm W/m2
08:04 27.3 °C 18.7 °C 1014.4 hPa NNE 4.8 km/h 12.9 km/h 59.6% 0 mm W/m2
08:09 27.5 °C 19.1 °C 1014.4 hPa NNE 4 km/h 11.3 km/h 60% 0 mm W/m2
08:14 27.6 °C 19.1 °C 1014.4 hPa NE 5.6 km/h 17.7 km/h 59.5% 0 mm W/m2
08:19 27.8 °C 19.1 °C 1014.4 hPa NE 4.8 km/h 17.7 km/h 59% 0 mm W/m2
08:24 27.9 °C 19.1 °C 1014.4 hPa NE 7.6 km/h 14.8 km/h 59% 0 mm W/m2
08:29 27.8 °C 19.1 °C 1014.4 hPa NE 6.3 km/h 14.5 km/h 59% 0 mm W/m2
08:34 27.8 °C 19.1 °C 1014.4 hPa NE 7.7 km/h 16.7 km/h 59% 0 mm W/m2
08:39 27.9 °C 19.2 °C 1014.4 hPa NE 4.8 km/h 16.1 km/h 59% 0 mm W/m2
08:44 28.1 °C 19.2 °C 1014.4 hPa NE 6.8 km/h 14.8 km/h 58.6% 0 mm W/m2
08:49 28.2 °C 19.4 °C 1014.4 hPa NNE 7.1 km/h 14.8 km/h 59% 0 mm W/m2
08:54 28.2 °C 19.4 °C 1014.4 hPa North 6 km/h 14.5 km/h 59% 0 mm W/m2
08:59 28.3 °C 19.4 °C 1014.4 hPa NE 7.2 km/h 14.8 km/h 58.4% 0 mm W/m2
09:04 28.4 °C 19.4 °C 1014.4 hPa NE 7.7 km/h 16.1 km/h 58.3% 0 mm W/m2
09:09 28.4 °C 19.4 °C 1014.4 hPa NE 9 km/h 20.9 km/h 58% 0 mm W/m2
09:14 28.6 °C 19.5 °C 1014.4 hPa NE 7.4 km/h 20.9 km/h 58% 0 mm W/m2
09:19 28.7 °C 19.5 °C 1014.4 hPa NE 8.2 km/h 16.7 km/h 57.5% 0 mm W/m2
09:24 28.9 °C 19.5 °C 1014.4 hPa NE 6.9 km/h 16.1 km/h 57% 0 mm W/m2
09:29 28.9 °C 19.3 °C 1014.4 hPa NE 10 km/h 24.1 km/h 56.2% 0 mm W/m2
09:34 28.9 °C 19.3 °C 1014.4 hPa NE 9.8 km/h 24.1 km/h 56% 0 mm W/m2
09:39 29.1 °C 19.4 °C 1014.4 hPa NE 7.6 km/h 19.3 km/h 56% 0 mm W/m2
09:44 29.3 °C 19.2 °C 1014.4 hPa NE 10.1 km/h 19.3 km/h 54.6% 0 mm W/m2
09:49 29.4 °C 19.1 °C 1014.4 hPa NNE 8.2 km/h 19.3 km/h 53.8% 0 mm W/m2
09:54 29.6 °C 18.9 °C 1014.4 hPa NE 10.9 km/h 22.5 km/h 53% 0 mm W/m2
09:59 29.6 °C 19.1 °C 1014.4 hPa NE 7.7 km/h 22.5 km/h 53.4% 0 mm W/m2
10:04 29.7 °C 19.3 °C 1014.4 hPa NE 9.5 km/h 22.5 km/h 53.4% 0 mm W/m2
10:09 29.8 °C 19.3 °C 1014.4 hPa NE 9.7 km/h 22.5 km/h 53.6% 0 mm W/m2
10:14 29.8 °C 19.3 °C 1014.4 hPa NE 10 km/h 20.9 km/h 53.3% 0 mm W/m2
10:19 29.9 °C 19.7 °C 1014.4 hPa NE 8.9 km/h 20.9 km/h 54.5% 0 mm W/m2
10:24 29.8 °C 19.9 °C 1014.4 hPa ENE 9.2 km/h 16.7 km/h 55.3% 0 mm W/m2
10:29 29.8 °C 20.1 °C 1014.4 hPa NE 10.3 km/h 22.5 km/h 56.1% 0 mm W/m2
10:34 29.8 °C 20.4 °C 1014.4 hPa NE 8.7 km/h 22.5 km/h 57% 0 mm W/m2
10:39 29.9 °C 20.3 °C 1014.4 hPa NE 10.1 km/h 22.5 km/h 56.6% 0 mm W/m2
10:44 29.9 °C 20.8 °C 1014.4 hPa NE 8.2 km/h 22.5 km/h 58.4% 0 mm W/m2
10:49 30 °C 20.4 °C 1014.4 hPa NNE 9.7 km/h 17.7 km/h 56.5% 0 mm W/m2
10:54 30.1 °C 20.6 °C 1014.8 hPa NE 9.5 km/h 18.5 km/h 57% 0 mm W/m2
10:59 30.1 °C 20.2 °C 1014.8 hPa NE 11.1 km/h 27.8 km/h 55.6% 0 mm W/m2
11:04 30.2 °C 19.9 °C 1014.8 hPa NE 11.4 km/h 27.4 km/h 54.2% 0 mm W/m2
11:09 30.2 °C 20.1 °C 1014.8 hPa NE 13.8 km/h 29.6 km/h 54.8% 0 mm W/m2
11:14 30.1 °C 20.1 °C 1014.8 hPa ENE 11.3 km/h 29 km/h 55% 0 mm W/m2
11:19 30.2 °C 20.1 °C 1014.8 hPa NNE 10.1 km/h 22.5 km/h 55% 0 mm W/m2
11:24 30.5 °C 20.1 °C 1014.8 hPa NE 9.2 km/h 20.9 km/h 54.1% 0 mm W/m2
11:29 30.7 °C 20.4 °C 1014.8 hPa NE 10.1 km/h 22.5 km/h 54.4% 0 mm W/m2
11:34 30.4 °C 20.3 °C 1015.1 hPa NE 14.5 km/h 27.8 km/h 55.2% 0 mm W/m2
11:39 30.2 °C 20.6 °C 1015.1 hPa NE 11.6 km/h 27.4 km/h 56.6% 0 mm W/m2
11:44 30.2 °C 20.9 °C 1015.1 hPa NE 12.7 km/h 25.9 km/h 57.4% 0 mm W/m2
11:49 30.3 °C 21.1 °C 1015.1 hPa NE 9.7 km/h 25.7 km/h 57.7% 0 mm W/m2
11:54 30.5 °C 20.6 °C 1015.1 hPa NE 12.7 km/h 25.7 km/h 55.7% 0 mm W/m2
11:59 30.4 °C 20.1 °C 1015.1 hPa NE 12.6 km/h 25.9 km/h 54% 0 mm W/m2
12:04 30.4 °C 20.4 °C 1015.1 hPa NNE 11.1 km/h 25.7 km/h 55.3% 0 mm W/m2
12:09 30.4 °C 20.5 °C 1015.1 hPa NE 11.1 km/h 25.7 km/h 55.3% 0 mm W/m2
12:14 30.6 °C 20.3 °C 1015.1 hPa NE 11.4 km/h 25.7 km/h 54.4% 0 mm W/m2
12:19 30.4 °C 20.8 °C 1015.1 hPa NE 12.7 km/h 24.1 km/h 56.5% 0 mm W/m2
12:24 30.4 °C 19.5 °C 1015.1 hPa NE 13.7 km/h 24.1 km/h 52.2% 0 mm W/m2
12:29 30.3 °C 19.4 °C 1015.1 hPa NE 11.4 km/h 24.1 km/h 52% 0 mm W/m2
12:34 30.5 °C 19.6 °C 1015.1 hPa NE 11.4 km/h 31.5 km/h 52% 0 mm W/m2
12:39 30.7 °C 18.8 °C 1015.1 hPa NE 10 km/h 32.2 km/h 49.4% 0 mm W/m2
12:44 30.8 °C 18.9 °C 1015.1 hPa NE 10.6 km/h 24.1 km/h 49.1% 0 mm W/m2
12:49 30.9 °C 19.1 °C 1015.1 hPa NE 10.8 km/h 24.1 km/h 49.5% 0 mm W/m2
12:54 30.8 °C 19.2 °C 1015.1 hPa NE 11.3 km/h 20.9 km/h 49.8% 0 mm W/m2
12:59 30.9 °C 19.1 °C 1015.1 hPa NE 12.9 km/h 31.5 km/h 49.6% 0 mm W/m2
13:04 30.8 °C 18.7 °C 1015.1 hPa NE 10 km/h 32.2 km/h 48.4% 0 mm W/m2
13:09 31.1 °C 18.3 °C 1015.1 hPa NE 12.1 km/h 27.4 km/h 46.5% 0 mm W/m2
13:14 31.1 °C 17.8 °C 1015.1 hPa NE 11.3 km/h 29 km/h 45.2% 0 mm W/m2
13:19 31.2 °C 17.9 °C 1015.1 hPa NE 11.4 km/h 29 km/h 45% 0 mm W/m2
13:24 31.2 °C 17.7 °C 1015.1 hPa NE 11.4 km/h 22.5 km/h 44.5% 0 mm W/m2
13:29 31.2 °C 17.7 °C 1015.1 hPa NE 9.5 km/h 22.5 km/h 44.5% 0 mm W/m2
13:34 31.3 °C 18 °C 1014.8 hPa NE 11.4 km/h 27.8 km/h 45% 0 mm W/m2
13:39 31.3 °C 17.6 °C 1014.8 hPa NE 11.9 km/h 27.4 km/h 44.1% 0 mm W/m2
13:44 31.3 °C 17.6 °C 1014.8 hPa NE 12.6 km/h 24.1 km/h 44% 0 mm W/m2
13:49 31.2 °C 17.2 °C 1014.8 hPa NE 11.1 km/h 22.5 km/h 43.1% 0 mm W/m2
13:54 31.6 °C 17 °C 1014.8 hPa NE 9.2 km/h 24.1 km/h 41.9% 0 mm W/m2
13:59 31.7 °C 16.6 °C 1014.8 hPa NE 11.9 km/h 24.1 km/h 40.5% 0 mm W/m2
14:04 31.4 °C 16.9 °C 1014.8 hPa NE 9.8 km/h 22.5 km/h 41.8% 0 mm W/m2
14:09 31.6 °C 17 °C 1014.8 hPa NE 9.2 km/h 20.9 km/h 41.8% 0 mm W/m2
14:14 31.6 °C 16.8 °C 1014.8 hPa NE 11.9 km/h 29.6 km/h 41.1% 0 mm W/m2
14:19 31.6 °C 16.4 °C 1014.8 hPa NE 14.8 km/h 29 km/h 40.1% 0 mm W/m2
14:24 31.5 °C 16.2 °C 1014.8 hPa NE 13.8 km/h 27.4 km/h 39.7% 0 mm W/m2
14:29 31.5 °C 15.8 °C 1014.8 hPa NE 14.3 km/h 35.4 km/h 38.9% 0 mm W/m2
14:34 31.5 °C 16.5 °C 1014.8 hPa NE 13 km/h 35.4 km/h 40.6% 0 mm W/m2
14:39 31.3 °C 16.4 °C 1014.4 hPa NE 14.6 km/h 27.4 km/h 41% 0 mm W/m2
14:44 31.2 °C 16.4 °C 1014.4 hPa NE 14.2 km/h 29 km/h 41.2% 0 mm W/m2
14:49 31.3 °C 16.4 °C 1014.4 hPa NE 11.7 km/h 29.6 km/h 41% 0 mm W/m2
14:54 31.4 °C 15.8 °C 1014.4 hPa ENE 15.4 km/h 29.6 km/h 39.1% 0 mm W/m2
14:59 31.4 °C 15.7 °C 1014.4 hPa NE 12.1 km/h 29 km/h 38.8% 0 mm W/m2
15:04 31.6 °C 16 °C 1014.4 hPa NE 11.4 km/h 24.1 km/h 39.2% 0 mm W/m2
15:09 31.6 °C 15.9 °C 1014.4 hPa NE 11.4 km/h 29.6 km/h 38.8% 0 mm W/m2
15:14 31.6 °C 16.1 °C 1014.4 hPa NE 11.7 km/h 29 km/h 39.2% 0 mm W/m2
15:19 31.5 °C 16.2 °C 1014.4 hPa NE 13.5 km/h 31.5 km/h 39.9% 0 mm W/m2
15:24 31.1 °C 16.3 °C 1014.4 hPa NE 14.2 km/h 32.2 km/h 40.9% 0 mm W/m2
15:29 30.8 °C 16.6 °C 1014.4 hPa NE 9.2 km/h 25.7 km/h 42.3% 0 mm W/m2
15:34 31 °C 16.7 °C 1014.4 hPa NE 11.9 km/h 27.8 km/h 42.4% 0 mm W/m2
15:39 30.9 °C 16.2 °C 1014.4 hPa NE 13.8 km/h 27.4 km/h 41.4% 0 mm W/m2
15:44 30.9 °C 15.8 °C 1014.4 hPa NE 12.7 km/h 25.7 km/h 40.1% 0 mm W/m2
15:49 30.9 °C 15 °C 1014.4 hPa NE 12.9 km/h 27.4 km/h 38.2% 0 mm W/m2
15:54 31.1 °C 15.2 °C 1014.4 hPa NNE 11.7 km/h 27.4 km/h 38.2% 0 mm W/m2
15:59 31.3 °C 15.3 °C 1014.4 hPa NE 10.5 km/h 20.9 km/h 38% 0 mm W/m2
16:04 31.1 °C 15.4 °C 1014.4 hPa NE 9.7 km/h 20.9 km/h 39% 0 mm W/m2
16:09 31 °C 15.8 °C 1014.4 hPa ENE 11.4 km/h 22.5 km/h 40% 0 mm W/m2
16:14 30.7 °C 15.8 °C 1014.4 hPa NE 12.2 km/h 22.5 km/h 40.7% 0 mm W/m2
16:19 30.4 °C 15.8 °C 1014.4 hPa NE 11.7 km/h 25.9 km/h 41.4% 0 mm W/m2
16:24 30.5 °C 15.8 °C 1014.1 hPa NE 9.7 km/h 25.7 km/h 41.2% 0 mm W/m2
16:29 30.4 °C 15.9 °C 1014.1 hPa NE 9.5 km/h 20.9 km/h 41.4% 0 mm W/m2
16:34 30.3 °C 15.9 °C 1014.1 hPa NE 11.6 km/h 25.7 km/h 41.9% 0 mm W/m2
16:39 30.2 °C 16.2 °C 1014.1 hPa NE 12.9 km/h 27.8 km/h 42.7% 0 mm W/m2
16:44 30.2 °C 16.1 °C 1014.1 hPa NE 10.9 km/h 27.4 km/h 42.4% 0 mm W/m2
16:49 30.2 °C 16.3 °C 1013.8 hPa ENE 13.7 km/h 33.8 km/h 43.3% 0 mm W/m2
16:54 29.8 °C 16.1 °C 1014.1 hPa NE 12.9 km/h 33.8 km/h 43.6% 0 mm W/m2
16:59 29.6 °C 16.2 °C 1014.4 hPa NE 12.9 km/h 32.2 km/h 44.4% 0 mm W/m2
17:04 29.4 °C 16.2 °C 1014.4 hPa NE 10.8 km/h 24.1 km/h 44.9% 0 mm W/m2
17:09 29.3 °C 16.2 °C 1014.1 hPa ENE 10.5 km/h 20.9 km/h 45% 0 mm W/m2
17:14 29.3 °C 16.4 °C 1014.1 hPa NE 10.5 km/h 25.7 km/h 45.9% 0 mm W/m2
17:19 29.1 °C 16.3 °C 1014.4 hPa NE 11.4 km/h 25.7 km/h 46% 0 mm W/m2
17:24 29.1 °C 16.8 °C 1014.4 hPa NE 10.5 km/h 22.5 km/h 47.5% 0 mm W/m2
17:29 29.1 °C 16.5 °C 1014.4 hPa NE 12.6 km/h 22.5 km/h 46.7% 0 mm W/m2
17:34 29 °C 16.8 °C 1014.4 hPa NE 6.8 km/h 20.9 km/h 47.8% 0 mm W/m2
17:39 29.1 °C 16.7 °C 1014.4 hPa NE 9 km/h 16.7 km/h 47.1% 0 mm W/m2
17:44 29 °C 16.4 °C 1014.4 hPa NE 9 km/h 19.3 km/h 46.5% 0 mm W/m2
17:49 28.8 °C 16.2 °C 1014.8 hPa NE 8.9 km/h 19.3 km/h 46.4% 0 mm W/m2
17:54 28.7 °C 16.1 °C 1014.8 hPa NE 7.9 km/h 19.3 km/h 46.6% 0 mm W/m2
17:59 28.7 °C 16.3 °C 1014.8 hPa NE 8.4 km/h 19.3 km/h 47% 0 mm W/m2
18:04 28.7 °C 16.2 °C 1014.8 hPa NE 9.3 km/h 19.3 km/h 47% 0 mm W/m2
18:09 28.6 °C 16.2 °C 1014.4 hPa NE 8.5 km/h 14.5 km/h 47% 0 mm W/m2
18:14 28.6 °C 16.4 °C 1014.4 hPa NE 6.9 km/h 12.9 km/h 47.7% 0 mm W/m2
18:19 28.7 °C 16.6 °C 1014.4 hPa NNW 5.8 km/h 16.1 km/h 48% 0 mm W/m2
18:24 28.6 °C 16.5 °C 1014.4 hPa NE 6.3 km/h 16.1 km/h 48% 0 mm W/m2
18:29 28.6 °C 16.3 °C 1014.4 hPa NE 7.2 km/h 13 km/h 47.3% 0 mm W/m2
18:34 28.5 °C 16.4 °C 1014.4 hPa NE 5.8 km/h 13 km/h 48% 0 mm W/m2
18:39 28.6 °C 16.2 °C 1014.4 hPa NE 7.4 km/h 19.3 km/h 47.1% 0 mm W/m2
18:44 28.7 °C 16.2 °C 1014.1 hPa NE 7.4 km/h 19.3 km/h 47% 0 mm W/m2
18:49 28.8 °C 16.1 °C 1014.1 hPa NE 8 km/h 16.7 km/h 46.2% 0 mm W/m2
18:54 28.8 °C 16.4 °C 1014.1 hPa NE 6.6 km/h 16.1 km/h 47% 0 mm W/m2
18:59 28.9 °C 16.4 °C 1014.1 hPa NE 6.4 km/h 14.5 km/h 46.8% 0 mm W/m2
19:04 28.8 °C 16.1 °C 1014.1 hPa NNE 5 km/h 13 km/h 46% 0 mm W/m2
19:09 28.6 °C 15.9 °C 1014.1 hPa NNE 7.6 km/h 18.5 km/h 46.3% 0 mm W/m2
19:14 28.3 °C 16.2 °C 1014.1 hPa NE 6.4 km/h 19.3 km/h 47.9% 0 mm W/m2
19:19 28.1 °C 15.9 °C 1014.1 hPa NE 8 km/h 14.8 km/h 47.6% 0 mm W/m2
19:24 27.9 °C 15.9 °C 1014.1 hPa NNE 6.8 km/h 14.8 km/h 48% 0 mm W/m2
19:29 27.9 °C 15.9 °C 1014.1 hPa NE 6.6 km/h 14.8 km/h 48% 0 mm W/m2
19:34 27.9 °C 15.9 °C 1014.1 hPa NE 4.8 km/h 11.3 km/h 48% 0 mm W/m2
19:39 27.9 °C 16.2 °C 1014.1 hPa NE 6.3 km/h 13 km/h 48.9% 0 mm W/m2
19:44 27.8 °C 16.6 °C 1014.1 hPa NE 7.4 km/h 18.5 km/h 50.5% 0 mm W/m2
19:49 27.7 °C 16.7 °C 1014.4 hPa NE 5.5 km/h 19.3 km/h 51.2% 0 mm W/m2
19:54 27.7 °C 16.9 °C 1014.4 hPa NE 5.3 km/h 14.5 km/h 52% 0 mm W/m2
19:59 27.7 °C 17.2 °C 1014.4 hPa NNE 5.3 km/h 9.7 km/h 52.9% 0 mm W/m2
20:04 27.5 °C 17.3 °C 1014.4 hPa NNE 6 km/h 14.8 km/h 53.8% 0 mm W/m2
20:09 27.4 °C 17.4 °C 1014.4 hPa NE 4.5 km/h 14.5 km/h 54.4% 0 mm W/m2
20:14 27.3 °C 17.5 °C 1014.4 hPa NNE 3.7 km/h 8 km/h 55% 0 mm W/m2
20:19 27.3 °C 17.6 °C 1014.4 hPa North 3.2 km/h 6.4 km/h 55.4% 0 mm W/m2
20:24 27.1 °C 17.6 °C 1014.8 hPa NW 3.9 km/h 6.4 km/h 56% 0 mm W/m2
20:29 27 °C 17.5 °C 1014.8 hPa NNW 1.8 km/h 6.4 km/h 56% 0 mm W/m2
20:34 26.9 °C 17.4 °C 1014.8 hPa West 1.6 km/h 6.4 km/h 56% 0 mm W/m2
20:39 26.7 °C 16.9 °C 1014.8 hPa NNW 2.4 km/h 6.4 km/h 54.7% 0 mm W/m2
20:44 26.7 °C 16.3 °C 1014.8 hPa NW 2.7 km/h 8 km/h 52.8% 0 mm W/m2
20:49 26.7 °C 15.9 °C 1014.8 hPa NNW 2.7 km/h 8 km/h 51.8% 0 mm W/m2
20:54 26.7 °C 15.7 °C 1014.8 hPa NNE 3.5 km/h 8 km/h 51.1% 0 mm W/m2
20:59 26.7 °C 15.7 °C 1015.1 hPa North 3.7 km/h 8 km/h 51% 0 mm W/m2
21:04 26.7 °C 16 °C 1015.1 hPa NW 2.9 km/h 8 km/h 52% 0 mm W/m2
21:09 26.6 °C 15.9 °C 1015.1 hPa North 1.8 km/h 6.4 km/h 52% 0 mm W/m2
21:14 26.4 °C 15.9 °C 1015.1 hPa NW 1 km/h 5.6 km/h 52.6% 0 mm W/m2
21:19 26.2 °C 15.9 °C 1015.1 hPa West 0.8 km/h 3.7 km/h 53% 0 mm W/m2
21:24 25.8 °C 15.8 °C 1015.1 hPa SW 0.6 km/h 3.7 km/h 53.7% 0 mm W/m2
21:29 25.6 °C 15.7 °C 1015.1 hPa SW 0.2 km/h 3.2 km/h 54.4% 0 mm W/m2
21:34 25.6 °C 15.6 °C 1015.5 hPa NNW 1.3 km/h 4.8 km/h 54% 0 mm W/m2
21:39 25.6 °C 15.6 °C 1015.1 hPa NNW 2.1 km/h 5.6 km/h 54% 0 mm W/m2
21:44 25.7 °C 15.7 °C 1015.5 hPa NW 2.6 km/h 5.6 km/h 54% 0 mm W/m2
21:49 25.7 °C 15.7 °C 1015.5 hPa NNW 2.6 km/h 5.6 km/h 54% 0 mm W/m2
21:54 25.7 °C 15.7 °C 1015.1 hPa North 2.4 km/h 5.6 km/h 54% 0 mm W/m2
21:59 25.8 °C 15.8 °C 1015.1 hPa NNW 1.8 km/h 5.6 km/h 54% 0 mm W/m2
Acquaviva delle Fonti, BA, Italia
Complimenti a Weather Underground - 3.25 mb